sensor_id;sensor_type;location;lat;lon;timestamp;temperature;humidity
7360;DHT22;3720;48.274;7.796;2023-06-10T00:00:19;23.70;82.70
7360;DHT22;3720;48.274;7.796;2023-06-10T00:02:51;23.70;81.10
7360;DHT22;3720;48.274;7.796;2023-06-10T00:05:23;23.70;82.00
7360;DHT22;3720;48.274;7.796;2023-06-10T00:07:55;23.50;85.00
7360;DHT22;3720;48.274;7.796;2023-06-10T00:10:29;23.40;85.50
7360;DHT22;3720;48.274;7.796;2023-06-10T00:13:01;23.30;86.70
7360;DHT22;3720;48.274;7.796;2023-06-10T00:15:34;23.10;87.20
7360;DHT22;3720;48.274;7.796;2023-06-10T00:18:07;23.00;88.80
7360;DHT22;3720;48.274;7.796;2023-06-10T00:20:40;22.80;90.20
7360;DHT22;3720;48.274;7.796;2023-06-10T00:23:13;22.80;90.40
7360;DHT22;3720;48.274;7.796;2023-06-10T00:25:46;22.60;91.20
7360;DHT22;3720;48.274;7.796;2023-06-10T00:28:18;22.50;91.70
7360;DHT22;3720;48.274;7.796;2023-06-10T00:30:50;22.40;92.40
7360;DHT22;3720;48.274;7.796;2023-06-10T00:33:23;22.40;93.30
7360;DHT22;3720;48.274;7.796;2023-06-10T00:35:55;22.20;93.50
7360;DHT22;3720;48.274;7.796;2023-06-10T00:38:27;22.10;94.00
7360;DHT22;3720;48.274;7.796;2023-06-10T00:41:00;22.00;94.60
7360;DHT22;3720;48.274;7.796;2023-06-10T00:43:32;22.00;94.70
7360;DHT22;3720;48.274;7.796;2023-06-10T00:46:04;21.90;95.20
7360;DHT22;3720;48.274;7.796;2023-06-10T00:48:36;21.80;95.20
7360;DHT22;3720;48.274;7.796;2023-06-10T00:51:08;21.60;95.70
7360;DHT22;3720;48.274;7.796;2023-06-10T00:53:41;21.60;96.60
7360;DHT22;3720;48.274;7.796;2023-06-10T00:56:14;21.50;96.80
7360;DHT22;3720;48.274;7.796;2023-06-10T00:58:47;21.40;97.00
7360;DHT22;3720;48.274;7.796;2023-06-10T01:01:20;21.40;98.20
7360;DHT22;3720;48.274;7.796;2023-06-10T01:03:52;21.40;98.20
7360;DHT22;3720;48.274;7.796;2023-06-10T01:06:31;21.30;98.70
7360;DHT22;3720;48.274;7.796;2023-06-10T01:09:13;21.30;99.70
7360;DHT22;3720;48.274;7.796;2023-06-10T01:11:56;21.30;99.50
7360;DHT22;3720;48.274;7.796;2023-06-10T01:14:29;21.30;99.90
7360;DHT22;3720;48.274;7.796;2023-06-10T01:17:03;21.30;99.90
7360;DHT22;3720;48.274;7.796;2023-06-10T01:19:35;21.30;99.90
7360;DHT22;3720;48.274;7.796;2023-06-10T01:22:09;21.20;99.90
7360;DHT22;3720;48.274;7.796;2023-06-10T01:24:41;21.10;99.90
7360;DHT22;3720;48.274;7.796;2023-06-10T01:27:15;21.00;99.90
7360;DHT22;3720;48.274;7.796;2023-06-10T01:29:54;20.90;99.90
7360;DHT22;3720;48.274;7.796;2023-06-10T01:32:34;20.70;99.90
7360;DHT22;3720;48.274;7.796;2023-06-10T01:35:09;20.50;99.90
7360;DHT22;3720;48.274;7.796;2023-06-10T01:37:46;20.50;99.90
7360;DHT22;3720;48.274;7.796;2023-06-10T01:40:18;20.40;99.90
7360;DHT22;3720;48.274;7.796;2023-06-10T01:42:50;20.10;99.90
7360;DHT22;3720;48.274;7.796;2023-06-10T01:45:22;20.10;99.90
7360;DHT22;3720;48.274;7.796;2023-06-10T01:47:55;20.00;99.90
7360;DHT22;3720;48.274;7.796;2023-06-10T01:50:27;20.10;99.90
7360;DHT22;3720;48.274;7.796;2023-06-10T01:53:00;20.10;99.90
7360;DHT22;3720;48.274;7.796;2023-06-10T01:55:33;20.10;99.90
7360;DHT22;3720;48.274;7.796;2023-06-10T01:58:05;20.00;99.90
7360;DHT22;3720;48.274;7.796;2023-06-10T02:00:36;20.00;99.90
7360;DHT22;3720;48.274;7.796;2023-06-10T02:03:08;20.00;99.90
7360;DHT22;3720;48.274;7.796;2023-06-10T02:05:41;19.90;99.90
7360;DHT22;3720;48.274;7.796;2023-06-10T02:08:15;19.80;99.90
7360;DHT22;3720;48.274;7.796;2023-06-10T02:10:47;19.80;99.90
7360;DHT22;3720;48.274;7.796;2023-06-10T02:13:18;19.80;99.90
7360;DHT22;3720;48.274;7.796;2023-06-10T02:15:50;19.80;99.90
7360;DHT22;3720;48.274;7.796;2023-06-10T02:18:24;19.80;99.90
7360;DHT22;3720;48.274;7.796;2023-06-10T02:20:57;19.90;99.90
7360;DHT22;3720;48.274;7.796;2023-06-10T02:23:30;20.00;99.90
7360;DHT22;3720;48.274;7.796;2023-06-10T02:26:02;20.00;99.90
7360;DHT22;3720;48.274;7.796;2023-06-10T02:28:34;20.00;99.90
7360;DHT22;3720;48.274;7.796;2023-06-10T02:31:06;20.00;99.90
7360;DHT22;3720;48.274;7.796;2023-06-10T02:33:38;19.90;99.90
7360;DHT22;3720;48.274;7.796;2023-06-10T02:36:10;19.90;99.90
7360;DHT22;3720;48.274;7.796;2023-06-10T02:38:45;19.90;99.90
7360;DHT22;3720;48.274;7.796;2023-06-10T02:41:17;19.70;99.90
7360;DHT22;3720;48.274;7.796;2023-06-10T02:43:49;19.80;99.90
7360;DHT22;3720;48.274;7.796;2023-06-10T02:46:20;19.80;99.90
7360;DHT22;3720;48.274;7.796;2023-06-10T02:48:53;19.60;99.90
7360;DHT22;3720;48.274;7.796;2023-06-10T02:51:25;19.50;99.90
7360;DHT22;3720;48.274;7.796;2023-06-10T02:53:59;19.40;99.90
7360;DHT22;3720;48.274;7.796;2023-06-10T02:56:31;19.30;99.90
7360;DHT22;3720;48.274;7.796;2023-06-10T02:59:03;19.30;99.90
7360;DHT22;3720;48.274;7.796;2023-06-10T03:01:37;19.20;99.90
7360;DHT22;3720;48.274;7.796;2023-06-10T03:04:09;19.20;99.90
7360;DHT22;3720;48.274;7.796;2023-06-10T03:06:43;19.10;99.90
7360;DHT22;3720;48.274;7.796;2023-06-10T03:09:17;19.00;99.90
7360;DHT22;3720;48.274;7.796;2023-06-10T03:11:49;18.90;99.90
7360;DHT22;3720;48.274;7.796;2023-06-10T03:14:21;18.80;99.90
7360;DHT22;3720;48.274;7.796;2023-06-10T03:16:55;18.70;99.90
7360;DHT22;3720;48.274;7.796;2023-06-10T03:19:27;18.50;99.90
7360;DHT22;3720;48.274;7.796;2023-06-10T03:22:08;18.50;99.90
7360;DHT22;3720;48.274;7.796;2023-06-10T03:24:42;18.50;99.90
7360;DHT22;3720;48.274;7.796;2023-06-10T03:27:17;18.50;99.90
7360;DHT22;3720;48.274;7.796;2023-06-10T03:29:49;18.70;99.90
7360;DHT22;3720;48.274;7.796;2023-06-10T03:32:21;18.70;99.90
7360;DHT22;3720;48.274;7.796;2023-06-10T03:34:53;18.70;99.90
7360;DHT22;3720;48.274;7.796;2023-06-10T03:37:27;18.80;99.90
7360;DHT22;3720;48.274;7.796;2023-06-10T03:40:01;18.70;99.90
7360;DHT22;3720;48.274;7.796;2023-06-10T03:42:33;18.70;99.90
7360;DHT22;3720;48.274;7.796;2023-06-10T03:45:06;18.70;99.90
7360;DHT22;3720;48.274;7.796;2023-06-10T03:47:39;18.60;99.90
7360;DHT22;3720;48.274;7.796;2023-06-10T03:50:11;18.70;99.90
7360;DHT22;3720;48.274;7.796;2023-06-10T03:52:43;18.70;99.90
7360;DHT22;3720;48.274;7.796;2023-06-10T03:55:17;18.80;99.90
7360;DHT22;3720;48.274;7.796;2023-06-10T03:57:52;18.80;99.90
7360;DHT22;3720;48.274;7.796;2023-06-10T04:00:24;18.70;99.90
7360;DHT22;3720;48.274;7.796;2023-06-10T04:02:56;18.70;99.90
7360;DHT22;3720;48.274;7.796;2023-06-10T04:05:28;18.70;99.90
7360;DHT22;3720;48.274;7.796;2023-06-10T04:08:00;18.70;99.90
7360;DHT22;3720;48.274;7.796;2023-06-10T04:10:34;18.70;99.90
7360;DHT22;3720;48.274;7.796;2023-06-10T04:13:06;18.70;99.90
7360;DHT22;3720;48.274;7.796;2023-06-10T04:15:39;18.80;99.90
7360;DHT22;3720;48.274;7.796;2023-06-10T04:18:11;18.80;99.90
7360;DHT22;3720;48.274;7.796;2023-06-10T04:20:43;18.80;99.90
7360;DHT22;3720;48.274;7.796;2023-06-10T04:23:15;18.80;99.90
7360;DHT22;3720;48.274;7.796;2023-06-10T04:25:49;18.70;99.90
7360;DHT22;3720;48.274;7.796;2023-06-10T04:28:21;18.70;99.90
7360;DHT22;3720;48.274;7.796;2023-06-10T04:30:53;18.70;99.90
7360;DHT22;3720;48.274;7.796;2023-06-10T04:33:25;18.70;99.90
7360;DHT22;3720;48.274;7.796;2023-06-10T04:35:58;18.70;99.90
7360;DHT22;3720;48.274;7.796;2023-06-10T04:38:30;18.70;99.90
7360;DHT22;3720;48.274;7.796;2023-06-10T04:41:04;18.80;99.90
7360;DHT22;3720;48.274;7.796;2023-06-10T04:43:35;18.90;99.90
7360;DHT22;3720;48.274;7.796;2023-06-10T04:46:07;18.90;99.90
7360;DHT22;3720;48.274;7.796;2023-06-10T04:48:39;18.80;99.90
7360;DHT22;3720;48.274;7.796;2023-06-10T04:51:12;18.80;99.90
7360;DHT22;3720;48.274;7.796;2023-06-10T04:53:44;18.80;99.90
7360;DHT22;3720;48.274;7.796;2023-06-10T04:56:18;18.80;99.90
7360;DHT22;3720;48.274;7.796;2023-06-10T04:58:50;18.80;99.90
7360;DHT22;3720;48.274;7.796;2023-06-10T05:01:22;18.80;99.90
7360;DHT22;3720;48.274;7.796;2023-06-10T05:03:54;18.90;99.90
7360;DHT22;3720;48.274;7.796;2023-06-10T05:06:26;18.90;99.90
7360;DHT22;3720;48.274;7.796;2023-06-10T05:08:58;18.90;99.90
7360;DHT22;3720;48.274;7.796;2023-06-10T05:11:31;19.00;99.90
7360;DHT22;3720;48.274;7.796;2023-06-10T05:14:03;19.10;99.90
7360;DHT22;3720;48.274;7.796;2023-06-10T05:16:35;19.10;99.90
7360;DHT22;3720;48.274;7.796;2023-06-10T05:19:07;19.20;99.90
7360;DHT22;3720;48.274;7.796;2023-06-10T05:21:40;19.30;99.90
7360;DHT22;3720;48.274;7.796;2023-06-10T05:24:12;19.40;99.90
7360;DHT22;3720;48.274;7.796;2023-06-10T05:26:45;19.70;99.90
7360;DHT22;3720;48.274;7.796;2023-06-10T05:29:19;19.80;99.90
7360;DHT22;3720;48.274;7.796;2023-06-10T05:31:50;20.00;99.90
7360;DHT22;3720;48.274;7.796;2023-06-10T05:34:22;20.10;99.90
7360;DHT22;3720;48.274;7.796;2023-06-10T05:36:54;20.20;99.90
7360;DHT22;3720;48.274;7.796;2023-06-10T05:39:26;20.20;99.90
7360;DHT22;3720;48.274;7.796;2023-06-10T05:41:59;20.30;99.90
7360;DHT22;3720;48.274;7.796;2023-06-10T05:44:32;20.40;99.90
7360;DHT22;3720;48.274;7.796;2023-06-10T05:47:05;20.40;99.90
7360;DHT22;3720;48.274;7.796;2023-06-10T05:49:37;20.60;99.90
7360;DHT22;3720;48.274;7.796;2023-06-10T05:52:08;20.50;99.90
7360;DHT22;3720;48.274;7.796;2023-06-10T05:54:40;20.70;99.90
7360;DHT22;3720;48.274;7.796;2023-06-10T05:57:13;20.80;99.90
7360;DHT22;3720;48.274;7.796;2023-06-10T05:59:46;20.90;99.90
7360;DHT22;3720;48.274;7.796;2023-06-10T06:02:18;20.90;99.90
7360;DHT22;3720;48.274;7.796;2023-06-10T06:04:50;21.00;99.90
7360;DHT22;3720;48.274;7.796;2023-06-10T06:07:21;21.20;99.90
7360;DHT22;3720;48.274;7.796;2023-06-10T06:09:53;21.20;99.90
7360;DHT22;3720;48.274;7.796;2023-06-10T06:12:27;21.40;99.90
7360;DHT22;3720;48.274;7.796;2023-06-10T06:14:58;21.50;99.90
7360;DHT22;3720;48.274;7.796;2023-06-10T06:17:30;21.60;99.90
7360;DHT22;3720;48.274;7.796;2023-06-10T06:20:03;21.60;99.90
7360;DHT22;3720;48.274;7.796;2023-06-10T06:22:35;21.60;99.90
7360;DHT22;3720;48.274;7.796;2023-06-10T06:25:07;21.60;99.90
7360;DHT22;3720;48.274;7.796;2023-06-10T06:27:40;21.60;99.90
7360;DHT22;3720;48.274;7.796;2023-06-10T06:30:12;21.60;99.90
7360;DHT22;3720;48.274;7.796;2023-06-10T06:32:44;21.60;99.90
7360;DHT22;3720;48.274;7.796;2023-06-10T06:35:16;21.70;99.90
7360;DHT22;3720;48.274;7.796;2023-06-10T06:37:49;21.70;99.90
7360;DHT22;3720;48.274;7.796;2023-06-10T06:40:21;21.80;99.90
7360;DHT22;3720;48.274;7.796;2023-06-10T06:42:54;21.80;99.90
7360;DHT22;3720;48.274;7.796;2023-06-10T06:45:26;21.80;99.90
7360;DHT22;3720;48.274;7.796;2023-06-10T06:47:58;21.90;99.90
7360;DHT22;3720;48.274;7.796;2023-06-10T06:50:30;21.90;99.90
7360;DHT22;3720;48.274;7.796;2023-06-10T06:53:02;21.90;99.90
7360;DHT22;3720;48.274;7.796;2023-06-10T06:55:34;22.00;99.90
7360;DHT22;3720;48.274;7.796;2023-06-10T06:58:07;22.10;99.90
7360;DHT22;3720;48.274;7.796;2023-06-10T07:00:39;22.20;99.90
7360;DHT22;3720;48.274;7.796;2023-06-10T07:03:11;22.30;99.90
7360;DHT22;3720;48.274;7.796;2023-06-10T07:05:43;22.40;99.90
7360;DHT22;3720;48.274;7.796;2023-06-10T07:08:15;22.50;99.90
7360;DHT22;3720;48.274;7.796;2023-06-10T07:10:47;22.60;99.90
7360;DHT22;3720;48.274;7.796;2023-06-10T07:13:21;22.60;99.90
7360;DHT22;3720;48.274;7.796;2023-06-10T07:15:52;22.70;99.90
7360;DHT22;3720;48.274;7.796;2023-06-10T07:18:24;22.80;99.90
7360;DHT22;3720;48.274;7.796;2023-06-10T07:20:56;22.80;99.90
7360;DHT22;3720;48.274;7.796;2023-06-10T07:23:28;22.90;99.90
7360;DHT22;3720;48.274;7.796;2023-06-10T07:26:00;23.00;99.90
7360;DHT22;3720;48.274;7.796;2023-06-10T07:28:33;23.10;99.90
7360;DHT22;3720;48.274;7.796;2023-06-10T07:31:06;23.20;99.90
7360;DHT22;3720;48.274;7.796;2023-06-10T07:33:38;23.30;99.90
7360;DHT22;3720;48.274;7.796;2023-06-10T07:36:11;23.40;99.90
7360;DHT22;3720;48.274;7.796;2023-06-10T07:38:42;23.50;99.90
7360;DHT22;3720;48.274;7.796;2023-06-10T07:41:15;23.60;99.90
7360;DHT22;3720;48.274;7.796;2023-06-10T07:43:49;23.70;99.90
7360;DHT22;3720;48.274;7.796;2023-06-10T07:46:24;23.80;99.90
7360;DHT22;3720;48.274;7.796;2023-06-10T07:48:57;23.80;99.90
7360;DHT22;3720;48.274;7.796;2023-06-10T07:51:29;23.90;99.90
7360;DHT22;3720;48.274;7.796;2023-06-10T07:54:01;24.00;99.90
7360;DHT22;3720;48.274;7.796;2023-06-10T07:56:33;24.10;99.90
7360;DHT22;3720;48.274;7.796;2023-06-10T07:59:06;24.20;99.90
7360;DHT22;3720;48.274;7.796;2023-06-10T08:01:38;24.20;99.90
7360;DHT22;3720;48.274;7.796;2023-06-10T08:04:11;24.40;99.90
7360;DHT22;3720;48.274;7.796;2023-06-10T08:06:43;24.50;99.90
7360;DHT22;3720;48.274;7.796;2023-06-10T08:09:15;24.60;99.90
7360;DHT22;3720;48.274;7.796;2023-06-10T08:11:47;24.70;99.90
7360;DHT22;3720;48.274;7.796;2023-06-10T08:14:21;24.80;99.90
7360;DHT22;3720;48.274;7.796;2023-06-10T08:16:52;25.00;99.90
7360;DHT22;3720;48.274;7.796;2023-06-10T08:19:24;25.00;99.90
7360;DHT22;3720;48.274;7.796;2023-06-10T08:21:56;25.10;99.90
7360;DHT22;3720;48.274;7.796;2023-06-10T08:24:28;25.10;99.90
7360;DHT22;3720;48.274;7.796;2023-06-10T08:27:00;25.30;99.90
7360;DHT22;3720;48.274;7.796;2023-06-10T08:29:33;25.40;99.90
7360;DHT22;3720;48.274;7.796;2023-06-10T08:32:06;25.50;99.90
7360;DHT22;3720;48.274;7.796;2023-06-10T08:34:38;25.60;99.90
7360;DHT22;3720;48.274;7.796;2023-06-10T08:37:11;25.70;99.90
7360;DHT22;3720;48.274;7.796;2023-06-10T08:39:42;25.70;99.90
7360;DHT22;3720;48.274;7.796;2023-06-10T08:42:22;25.80;99.90
7360;DHT22;3720;48.274;7.796;2023-06-10T08:44:56;25.90;99.90
7360;DHT22;3720;48.274;7.796;2023-06-10T08:47:30;25.90;99.90
7360;DHT22;3720;48.274;7.796;2023-06-10T08:50:03;26.10;99.90
7360;DHT22;3720;48.274;7.796;2023-06-10T08:52:36;26.20;99.90
7360;DHT22;3720;48.274;7.796;2023-06-10T08:55:11;26.30;99.90
7360;DHT22;3720;48.274;7.796;2023-06-10T08:57:44;26.40;99.90
7360;DHT22;3720;48.274;7.796;2023-06-10T09:00:19;26.60;99.90
7360;DHT22;3720;48.274;7.796;2023-06-10T09:02:52;26.80;99.90
7360;DHT22;3720;48.274;7.796;2023-06-10T09:05:24;26.90;99.90
7360;DHT22;3720;48.274;7.796;2023-06-10T09:07:57;27.10;99.90
7360;DHT22;3720;48.274;7.796;2023-06-10T09:10:30;27.20;99.90
7360;DHT22;3720;48.274;7.796;2023-06-10T09:13:02;27.30;99.90
7360;DHT22;3720;48.274;7.796;2023-06-10T09:15:35;27.40;99.90
7360;DHT22;3720;48.274;7.796;2023-06-10T09:18:08;27.60;99.90
7360;DHT22;3720;48.274;7.796;2023-06-10T09:20:41;27.70;99.90
7360;DHT22;3720;48.274;7.796;2023-06-10T09:23:13;27.80;99.90
7360;DHT22;3720;48.274;7.796;2023-06-10T09:25:56;27.80;99.90
7360;DHT22;3720;48.274;7.796;2023-06-10T09:28:29;27.90;99.90
7360;DHT22;3720;48.274;7.796;2023-06-10T09:31:04;28.10;99.90
7360;DHT22;3720;48.274;7.796;2023-06-10T09:33:38;28.10;99.90
7360;DHT22;3720;48.274;7.796;2023-06-10T09:36:10;28.20;99.90
7360;DHT22;3720;48.274;7.796;2023-06-10T09:38:43;28.30;99.90
7360;DHT22;3720;48.274;7.796;2023-06-10T09:41:15;28.40;99.90
7360;DHT22;3720;48.274;7.796;2023-06-10T09:43:47;28.60;99.90
7360;DHT22;3720;48.274;7.796;2023-06-10T09:46:21;28.70;99.90
7360;DHT22;3720;48.274;7.796;2023-06-10T09:48:53;28.90;99.90
7360;DHT22;3720;48.274;7.796;2023-06-10T09:51:25;29.00;99.90
7360;DHT22;3720;48.274;7.796;2023-06-10T09:53:56;29.10;99.90
7360;DHT22;3720;48.274;7.796;2023-06-10T09:56:33;29.30;99.90
7360;DHT22;3720;48.274;7.796;2023-06-10T09:59:05;29.50;99.90
7360;DHT22;3720;48.274;7.796;2023-06-10T10:01:38;29.60;99.90
7360;DHT22;3720;48.274;7.796;2023-06-10T10:04:11;29.60;99.90
7360;DHT22;3720;48.274;7.796;2023-06-10T10:06:42;29.70;99.20
7360;DHT22;3720;48.274;7.796;2023-06-10T10:09:14;29.70;99.30
7360;DHT22;3720;48.274;7.796;2023-06-10T10:11:47;29.80;99.70
7360;DHT22;3720;48.274;7.796;2023-06-10T10:14:20;29.90;99.40
7360;DHT22;3720;48.274;7.796;2023-06-10T10:16:54;29.90;98.60
7360;DHT22;3720;48.274;7.796;2023-06-10T10:19:31;30.10;98.60
7360;DHT22;3720;48.274;7.796;2023-06-10T10:22:07;30.30;98.30
7360;DHT22;3720;48.274;7.796;2023-06-10T10:24:44;30.50;98.30
7360;DHT22;3720;48.274;7.796;2023-06-10T10:27:26;30.60;97.30
7360;DHT22;3720;48.274;7.796;2023-06-10T10:29:59;30.60;96.20
7360;DHT22;3720;48.274;7.796;2023-06-10T10:32:37;30.70;95.50
7360;DHT22;3720;48.274;7.796;2023-06-10T10:35:14;30.80;95.30
7360;DHT22;3720;48.274;7.796;2023-06-10T10:37:48;30.90;95.10
7360;DHT22;3720;48.274;7.796;2023-06-10T10:40:22;31.00;94.50
7360;DHT22;3720;48.274;7.796;2023-06-10T10:42:56;31.20;95.10
7360;DHT22;3720;48.274;7.796;2023-06-10T10:45:29;31.40;93.30
7360;DHT22;3720;48.274;7.796;2023-06-10T10:48:06;31.40;92.90
7360;DHT22;3720;48.274;7.796;2023-06-10T10:50:42;31.50;92.90
7360;DHT22;3720;48.274;7.796;2023-06-10T10:53:19;31.70;91.90
7360;DHT22;3720;48.274;7.796;2023-06-10T10:56:05;31.80;90.30
7360;DHT22;3720;48.274;7.796;2023-06-10T10:58:38;32.00;90.80
7360;DHT22;3720;48.274;7.796;2023-06-10T11:01:11;32.20;91.10
7360;DHT22;3720;48.274;7.796;2023-06-10T11:03:45;32.40;90.70
7360;DHT22;3720;48.274;7.796;2023-06-10T11:06:18;32.50;87.00
7360;DHT22;3720;48.274;7.796;2023-06-10T11:08:50;32.50;85.70
7360;DHT22;3720;48.274;7.796;2023-06-10T11:11:24;32.50;84.70
7360;DHT22;3720;48.274;7.796;2023-06-10T11:13:59;32.50;85.20
7360;DHT22;3720;48.274;7.796;2023-06-10T11:16:41;32.70;82.60
7360;DHT22;3720;48.274;7.796;2023-06-10T11:19:35;32.90;82.40
7360;DHT22;3720;48.274;7.796;2023-06-10T11:22:16;33.00;84.20
7360;DHT22;3720;48.274;7.796;2023-06-10T11:24:49;33.10;80.70
7360;DHT22;3720;48.274;7.796;2023-06-10T11:27:23;33.30;80.30
7360;DHT22;3720;48.274;7.796;2023-06-10T11:29:57;33.50;78.80
7360;DHT22;3720;48.274;7.796;2023-06-10T11:32:31;33.70;78.50
7360;DHT22;3720;48.274;7.796;2023-06-10T11:35:05;33.80;76.00
7360;DHT22;3720;48.274;7.796;2023-06-10T11:37:39;33.90;74.40
7360;DHT22;3720;48.274;7.796;2023-06-10T11:40:12;33.90;73.00
7360;DHT22;3720;48.274;7.796;2023-06-10T11:42:45;33.90;69.40
7360;DHT22;3720;48.274;7.796;2023-06-10T11:45:17;33.90;70.90
7360;DHT22;3720;48.274;7.796;2023-06-10T11:47:56;34.10;72.30
7360;DHT22;3720;48.274;7.796;2023-06-10T11:50:32;34.30;70.20
7360;DHT22;3720;48.274;7.796;2023-06-10T11:53:04;34.40;66.00
7360;DHT22;3720;48.274;7.796;2023-06-10T11:55:43;34.50;67.00
7360;DHT22;3720;48.274;7.796;2023-06-10T11:58:17;34.70;67.30
7360;DHT22;3720;48.274;7.796;2023-06-10T12:00:50;34.80;64.60
7360;DHT22;3720;48.274;7.796;2023-06-10T12:03:24;34.60;65.50
7360;DHT22;3720;48.274;7.796;2023-06-10T12:05:58;34.40;65.40
7360;DHT22;3720;48.274;7.796;2023-06-10T12:08:31;34.40;65.80
7360;DHT22;3720;48.274;7.796;2023-06-10T12:11:04;34.70;63.80
7360;DHT22;3720;48.274;7.796;2023-06-10T12:13:36;34.80;62.20
7360;DHT22;3720;48.274;7.796;2023-06-10T12:16:09;34.80;61.80
7360;DHT22;3720;48.274;7.796;2023-06-10T12:18:43;35.00;62.20
7360;DHT22;3720;48.274;7.796;2023-06-10T12:21:18;35.20;61.10
7360;DHT22;3720;48.274;7.796;2023-06-10T12:24:03;35.30;60.70
7360;DHT22;3720;48.274;7.796;2023-06-10T12:26:37;35.20;59.00
7360;DHT22;3720;48.274;7.796;2023-06-10T12:29:16;35.00;58.60
7360;DHT22;3720;48.274;7.796;2023-06-10T12:31:56;35.10;58.30
7360;DHT22;3720;48.274;7.796;2023-06-10T12:34:30;35.30;58.10
7360;DHT22;3720;48.274;7.796;2023-06-10T12:37:06;35.60;58.60
7360;DHT22;3720;48.274;7.796;2023-06-10T12:39:38;35.40;57.30
7360;DHT22;3720;48.274;7.796;2023-06-10T12:42:12;35.20;57.90
7360;DHT22;3720;48.274;7.796;2023-06-10T12:44:44;35.00;58.60
7360;DHT22;3720;48.274;7.796;2023-06-10T12:47:16;34.90;58.60
7360;DHT22;3720;48.274;7.796;2023-06-10T12:49:48;34.80;58.70
7360;DHT22;3720;48.274;7.796;2023-06-10T12:52:22;35.00;58.40
7360;DHT22;3720;48.274;7.796;2023-06-10T12:54:55;35.10;57.70
7360;DHT22;3720;48.274;7.796;2023-06-10T12:57:27;35.30;58.30
7360;DHT22;3720;48.274;7.796;2023-06-10T12:59:58;35.60;56.80
7360;DHT22;3720;48.274;7.796;2023-06-10T13:02:34;35.60;57.50
7360;DHT22;3720;48.274;7.796;2023-06-10T13:05:06;35.40;55.80
7360;DHT22;3720;48.274;7.796;2023-06-10T13:07:39;35.30;56.90
7360;DHT22;3720;48.274;7.796;2023-06-10T13:10:12;35.50;56.40
7360;DHT22;3720;48.274;7.796;2023-06-10T13:12:45;35.70;55.50
7360;DHT22;3720;48.274;7.796;2023-06-10T13:15:17;35.80;53.70
7360;DHT22;3720;48.274;7.796;2023-06-10T13:17:50;35.60;52.90
7360;DHT22;3720;48.274;7.796;2023-06-10T13:20:21;35.20;52.50
7360;DHT22;3720;48.274;7.796;2023-06-10T13:22:55;34.90;53.80
7360;DHT22;3720;48.274;7.796;2023-06-10T13:25:27;34.60;53.80
7360;DHT22;3720;48.274;7.796;2023-06-10T13:27:59;34.60;54.80
7360;DHT22;3720;48.274;7.796;2023-06-10T13:30:31;34.70;55.80
7360;DHT22;3720;48.274;7.796;2023-06-10T13:33:03;34.70;53.80
7360;DHT22;3720;48.274;7.796;2023-06-10T13:35:35;34.60;54.90
7360;DHT22;3720;48.274;7.796;2023-06-10T13:38:08;34.90;56.00
7360;DHT22;3720;48.274;7.796;2023-06-10T13:40:40;35.30;53.80
7360;DHT22;3720;48.274;7.796;2023-06-10T13:43:13;35.50;53.90
7360;DHT22;3720;48.274;7.796;2023-06-10T13:45:46;35.70;54.00
7360;DHT22;3720;48.274;7.796;2023-06-10T13:48:18;35.80;51.80
7360;DHT22;3720;48.274;7.796;2023-06-10T13:50:50;35.90;52.60
7360;DHT22;3720;48.274;7.796;2023-06-10T13:53:24;36.00;52.30
7360;DHT22;3720;48.274;7.796;2023-06-10T13:55:56;36.30;52.60
7360;DHT22;3720;48.274;7.796;2023-06-10T13:58:27;36.60;50.70
7360;DHT22;3720;48.274;7.796;2023-06-10T14:01:00;36.90;49.40
7360;DHT22;3720;48.274;7.796;2023-06-10T14:03:32;37.20;48.60
7360;DHT22;3720;48.274;7.796;2023-06-10T14:06:04;37.30;48.50
7360;DHT22;3720;48.274;7.796;2023-06-10T14:08:38;37.10;48.30
7360;DHT22;3720;48.274;7.796;2023-06-10T14:11:11;36.90;48.90
7360;DHT22;3720;48.274;7.796;2023-06-10T14:13:43;36.40;48.40
7360;DHT22;3720;48.274;7.796;2023-06-10T14:16:15;35.90;49.60
7360;DHT22;3720;48.274;7.796;2023-06-10T14:18:47;35.30;50.10
7360;DHT22;3720;48.274;7.796;2023-06-10T14:21:20;34.80;50.80
7360;DHT22;3720;48.274;7.796;2023-06-10T14:23:53;34.50;52.40
7360;DHT22;3720;48.274;7.796;2023-06-10T14:26:25;34.10;52.50
7360;DHT22;3720;48.274;7.796;2023-06-10T14:28:57;33.80;52.40
7360;DHT22;3720;48.274;7.796;2023-06-10T14:31:29;33.60;53.60
7360;DHT22;3720;48.274;7.796;2023-06-10T14:34:01;33.60;53.40
7360;DHT22;3720;48.274;7.796;2023-06-10T14:36:33;33.60;53.00
7360;DHT22;3720;48.274;7.796;2023-06-10T14:39:07;33.70;53.20
7360;DHT22;3720;48.274;7.796;2023-06-10T14:41:38;34.10;51.30
7360;DHT22;3720;48.274;7.796;2023-06-10T14:44:10;34.50;50.90
7360;DHT22;3720;48.274;7.796;2023-06-10T14:46:42;34.60;51.70
7360;DHT22;3720;48.274;7.796;2023-06-10T14:49:14;34.60;51.10
7360;DHT22;3720;48.274;7.796;2023-06-10T14:51:46;34.60;52.30
7360;DHT22;3720;48.274;7.796;2023-06-10T14:54:22;34.50;52.10
7360;DHT22;3720;48.274;7.796;2023-06-10T14:56:54;34.40;53.10
7360;DHT22;3720;48.274;7.796;2023-06-10T14:59:26;34.60;53.90
7360;DHT22;3720;48.274;7.796;2023-06-10T15:01:58;34.80;54.70
7360;DHT22;3720;48.274;7.796;2023-06-10T15:04:31;34.60;53.60
7360;DHT22;3720;48.274;7.796;2023-06-10T15:07:03;34.60;54.10
7360;DHT22;3720;48.274;7.796;2023-06-10T15:09:37;34.70;55.00
7360;DHT22;3720;48.274;7.796;2023-06-10T15:12:09;34.80;54.10
7360;DHT22;3720;48.274;7.796;2023-06-10T15:14:42;34.60;54.10
7360;DHT22;3720;48.274;7.796;2023-06-10T15:17:14;34.50;54.10
7360;DHT22;3720;48.274;7.796;2023-06-10T15:19:46;34.60;54.90
7360;DHT22;3720;48.274;7.796;2023-06-10T15:22:18;34.80;54.50
7360;DHT22;3720;48.274;7.796;2023-06-10T15:24:51;35.00;54.70
7360;DHT22;3720;48.274;7.796;2023-06-10T15:27:23;35.20;54.40
7360;DHT22;3720;48.274;7.796;2023-06-10T15:29:55;35.50;53.40
7360;DHT22;3720;48.274;7.796;2023-06-10T15:32:26;35.70;52.40
7360;DHT22;3720;48.274;7.796;2023-06-10T15:34:59;35.90;51.50
7360;DHT22;3720;48.274;7.796;2023-06-10T15:37:30;35.80;50.90
7360;DHT22;3720;48.274;7.796;2023-06-10T15:40:06;35.90;50.20
7360;DHT22;3720;48.274;7.796;2023-06-10T15:42:38;36.00;51.10
7360;DHT22;3720;48.274;7.796;2023-06-10T15:45:10;36.10;50.20
7360;DHT22;3720;48.274;7.796;2023-06-10T15:47:42;36.20;50.70
7360;DHT22;3720;48.274;7.796;2023-06-10T15:50:14;36.40;50.30
7360;DHT22;3720;48.274;7.796;2023-06-10T15:52:46;36.20;49.70
7360;DHT22;3720;48.274;7.796;2023-06-10T15:55:20;35.80;50.50
7360;DHT22;3720;48.274;7.796;2023-06-10T15:57:51;35.60;50.70
7360;DHT22;3720;48.274;7.796;2023-06-10T16:00:23;35.40;50.90
7360;DHT22;3720;48.274;7.796;2023-06-10T16:02:55;35.20;51.40
7360;DHT22;3720;48.274;7.796;2023-06-10T16:05:27;35.20;52.40
7360;DHT22;3720;48.274;7.796;2023-06-10T16:08:00;35.30;52.80
7360;DHT22;3720;48.274;7.796;2023-06-10T16:10:33;35.40;51.90
7360;DHT22;3720;48.274;7.796;2023-06-10T16:13:05;35.40;51.10
7360;DHT22;3720;48.274;7.796;2023-06-10T16:15:37;35.30;51.60
7360;DHT22;3720;48.274;7.796;2023-06-10T16:18:09;35.10;51.90
7360;DHT22;3720;48.274;7.796;2023-06-10T16:20:41;34.80;52.00
7360;DHT22;3720;48.274;7.796;2023-06-10T16:23:13;34.50;51.70
7360;DHT22;3720;48.274;7.796;2023-06-10T16:25:47;34.40;51.80
7360;DHT22;3720;48.274;7.796;2023-06-10T16:28:18;34.40;51.80
7360;DHT22;3720;48.274;7.796;2023-06-10T16:30:50;34.60;51.90
7360;DHT22;3720;48.274;7.796;2023-06-10T16:33:22;34.60;52.30
7360;DHT22;3720;48.274;7.796;2023-06-10T16:35:54;34.70;51.90
7360;DHT22;3720;48.274;7.796;2023-06-10T16:38:26;34.70;51.80